createdAt,value
2023-05-02T00:01:31.987Z,12.14
2023-05-02T00:04:35.272Z,12.04
2023-05-02T00:07:38.828Z,12.00
2023-05-02T00:10:41.943Z,12.05
2023-05-02T00:13:44.962Z,12.02
2023-05-02T00:16:48.007Z,12.20
2023-05-02T00:19:50.845Z,12.24
2023-05-02T00:22:54.164Z,12.14
2023-05-02T00:25:56.886Z,12.13
2023-05-02T00:29:00.845Z,12.12
2023-05-02T00:32:03.656Z,12.11
2023-05-02T00:35:07.364Z,12.12
2023-05-02T00:38:10.725Z,12.10
2023-05-02T00:41:14.224Z,12.10
2023-05-02T00:44:17.334Z,12.05
2023-05-02T00:47:21.179Z,12.13
2023-05-02T00:50:27.518Z,11.95
2023-05-02T00:53:31.469Z,12.20
2023-05-02T00:56:34.378Z,12.29
2023-05-02T00:59:38.086Z,12.49
2023-05-02T01:03:00.793Z,12.64
2023-05-02T01:06:18.110Z,12.75
2023-05-02T01:10:01.439Z,12.92
2023-05-02T01:13:09.356Z,13.01
2023-05-02T01:16:14.474Z,13.31
2023-05-02T01:19:45.160Z,13.47
2023-05-02T01:22:49.205Z,13.77
2023-05-02T01:26:09.836Z,13.78
2023-05-02T01:29:16.409Z,13.94
2023-05-02T01:32:22.402Z,14.17
2023-05-02T01:35:27.775Z,14.47
2023-05-02T01:38:34.079Z,14.78
2023-05-02T01:41:38.296Z,15.15
2023-05-02T01:44:43.198Z,15.31
2023-05-02T01:47:47.149Z,15.43
2023-05-02T01:50:52.053Z,15.40
2023-05-02T01:53:54.830Z,15.32
2023-05-02T01:56:59.222Z,15.36
2023-05-02T02:00:04.269Z,15.28
2023-05-02T02:03:17.313Z,15.33
2023-05-02T02:06:22.154Z,15.34
2023-05-02T02:09:24.939Z,15.20
2023-05-02T02:12:41.914Z,15.26
2023-05-02T02:15:49.248Z,15.25
2023-05-02T02:18:56.720Z,15.33
2023-05-02T02:22:01.918Z,15.32
2023-05-02T02:25:08.460Z,15.31
2023-05-02T02:28:11.904Z,15.42
2023-05-02T02:31:14.569Z,15.59
2023-05-02T02:34:18.051Z,15.62
2023-05-02T02:37:30.392Z,15.76
2023-05-02T02:40:48.031Z,15.92
2023-05-02T02:44:24.820Z,15.99
2023-05-02T02:47:30.082Z,15.92
2023-05-02T02:50:35.855Z,15.92
2023-05-02T02:53:50.902Z,15.93
2023-05-02T02:57:02.386Z,15.88
2023-05-02T03:00:27.618Z,15.89
2023-05-02T03:03:32.764Z,15.93
2023-05-02T03:06:36.287Z,15.85
2023-05-02T03:09:47.597Z,15.80
2023-05-02T03:12:51.147Z,15.83
2023-05-02T03:15:59.434Z,15.78
2023-05-02T03:19:03.747Z,15.82
2023-05-02T03:22:08.595Z,15.79
2023-05-02T03:25:11.878Z,15.64
2023-05-02T03:28:18.235Z,15.59
2023-05-02T03:31:24.674Z,15.58
2023-05-02T03:34:28.830Z,15.54
2023-05-02T03:37:34.578Z,15.49
2023-05-02T03:40:37.427Z,15.38
2023-05-02T03:43:41.018Z,15.41
2023-05-02T03:46:43.809Z,15.43
2023-05-02T03:49:47.106Z,15.34
2023-05-02T03:52:49.979Z,15.32
2023-05-02T03:55:53.804Z,15.42
2023-05-02T03:58:57.232Z,15.54
2023-05-02T04:02:00.552Z,15.57
2023-05-02T04:05:05.362Z,15.77
2023-05-02T04:08:08.707Z,15.81
2023-05-02T04:11:12.399Z,15.78
2023-05-02T04:14:15.191Z,15.85
2023-05-02T04:17:19.070Z,15.92
2023-05-02T04:20:22.132Z,16.03
2023-05-02T04:23:25.722Z,16.03
2023-05-02T04:26:29.655Z,16.03
2023-05-02T04:29:33.526Z,16.13
2023-05-02T04:32:37.129Z,16.22
2023-05-02T04:35:41.271Z,16.36
2023-05-02T04:38:47.375Z,16.58
2023-05-02T04:41:51.059Z,16.61
2023-05-02T04:44:53.859Z,16.63
2023-05-02T04:47:57.122Z,16.68
2023-05-02T04:51:00.268Z,16.80
2023-05-02T04:54:05.087Z,16.90
2023-05-02T04:57:08.221Z,16.97
2023-05-02T05:00:12.516Z,17.21
2023-05-02T05:03:15.509Z,17.37
2023-05-02T05:06:19.652Z,17.55
2023-05-02T05:09:22.596Z,17.61
2023-05-02T05:12:26.397Z,17.66
2023-05-02T05:15:29.406Z,17.89
2023-05-02T05:18:34.338Z,18.11
2023-05-02T05:21:37.249Z,18.21
2023-05-02T05:24:40.752Z,18.03
2023-05-02T05:27:43.833Z,18.01
2023-05-02T05:30:47.461Z,17.91
2023-05-02T05:33:51.740Z,17.98
2023-05-02T05:36:55.640Z,18.33
2023-05-02T05:39:58.432Z,18.50
2023-05-02T05:43:01.475Z,18.75
2023-05-02T05:46:04.756Z,18.49
2023-05-02T05:49:08.177Z,18.54
2023-05-02T05:52:11.640Z,18.46
2023-05-02T05:55:14.978Z,18.52
2023-05-02T05:58:18.452Z,18.90
2023-05-02T06:01:21.647Z,18.74
2023-05-02T06:04:25.113Z,18.86
2023-05-02T06:07:28.165Z,19.01
2023-05-02T06:10:31.760Z,18.89
2023-05-02T06:13:34.588Z,18.81
2023-05-02T06:16:38.036Z,18.85
2023-05-02T06:19:41.418Z,19.00
2023-05-02T06:22:44.533Z,19.20
2023-05-02T06:25:47.256Z,19.21
2023-05-02T06:28:50.218Z,18.98
2023-05-02T06:31:56.316Z,19.32
2023-05-02T06:34:59.582Z,19.42
2023-05-02T06:38:02.206Z,19.31
2023-05-02T06:41:05.091Z,19.29
2023-05-02T06:44:07.906Z,19.21
2023-05-02T06:47:11.072Z,19.40
2023-05-02T06:50:13.929Z,19.45
2023-05-02T06:53:17.030Z,20.19
2023-05-02T06:56:19.709Z,20.17
2023-05-02T06:59:22.777Z,19.92
2023-05-02T07:02:25.934Z,19.83
2023-05-02T07:05:29.997Z,19.66
2023-05-02T07:08:32.865Z,20.33
2023-05-02T07:11:36.348Z,20.37
2023-05-02T07:14:39.610Z,20.74
2023-05-02T07:17:42.704Z,21.08
2023-05-02T07:20:45.400Z,21.80
2023-05-02T07:23:57.829Z,21.61
2023-05-02T07:27:00.980Z,21.05
2023-05-02T07:30:04.548Z,21.20
2023-05-02T07:33:07.810Z,21.73
2023-05-02T07:36:10.984Z,22.06
2023-05-02T07:39:13.761Z,22.31
2023-05-02T07:42:16.925Z,22.12
2023-05-02T07:45:19.796Z,21.86
2023-05-02T07:48:23.475Z,21.79
2023-05-02T07:51:27.198Z,21.93
2023-05-02T07:54:30.567Z,21.87
2023-05-02T07:57:37.852Z,22.60
2023-05-02T08:00:41.154Z,22.50
2023-05-02T08:03:45.097Z,22.42
2023-05-02T08:06:48.035Z,21.56
2023-05-02T08:09:51.689Z,22.23
2023-05-02T08:12:54.556Z,23.21
2023-05-02T08:15:58.642Z,23.27
2023-05-02T08:19:01.535Z,22.69
2023-05-02T08:22:04.535Z,22.82
2023-05-02T08:25:07.482Z,22.80
2023-05-02T08:28:10.551Z,23.18
2023-05-02T08:31:13.269Z,23.51
2023-05-02T08:34:16.651Z,23.81
2023-05-02T08:37:19.613Z,23.80
2023-05-02T08:40:37.843Z,23.58
2023-05-02T08:43:44.212Z,23.77
2023-05-02T08:46:50.207Z,24.01
2023-05-02T08:49:56.642Z,23.67
2023-05-02T08:53:00.661Z,23.10
2023-05-02T08:56:04.091Z,21.62
2023-05-02T08:59:08.354Z,21.66
2023-05-02T09:02:24.134Z,22.42
2023-05-02T09:05:27.642Z,23.25
2023-05-02T09:08:30.710Z,23.50
2023-05-02T09:11:33.998Z,22.84
2023-05-02T09:14:36.677Z,24.07
2023-05-02T09:17:41.874Z,23.62
2023-05-02T09:20:45.213Z,23.62
2023-05-02T09:24:03.556Z,24.33
2023-05-02T09:27:06.701Z,25.52
2023-05-02T09:30:39.344Z,24.68
2023-05-02T09:33:43.201Z,25.53
2023-05-02T09:36:48.241Z,25.79
2023-05-02T09:40:07.208Z,24.94
2023-05-02T09:43:17.339Z,24.38
2023-05-02T09:46:20.575Z,24.63
2023-05-02T09:49:45.327Z,24.34
2023-05-02T09:53:02.792Z,25.01
2023-05-02T09:56:06.209Z,24.73
2023-05-02T09:59:14.882Z,24.60
2023-05-02T10:02:18.309Z,24.64
2023-05-02T10:05:22.195Z,24.50
2023-05-02T10:08:28.996Z,24.37
2023-05-02T10:11:34.216Z,25.09
2023-05-02T10:14:41.837Z,25.68
2023-05-02T10:17:53.371Z,25.28
2023-05-02T10:21:00.493Z,25.20
2023-05-02T10:24:04.484Z,25.55
2023-05-02T10:27:07.878Z,25.16
2023-05-02T10:30:13.914Z,24.70
2023-05-02T10:33:19.191Z,24.18
2023-05-02T10:36:23.888Z,23.91
2023-05-02T10:39:27.919Z,24.04
2023-05-02T10:42:31.721Z,23.81
2023-05-02T10:45:37.994Z,23.82
2023-05-02T10:48:41.214Z,23.91
2023-05-02T10:51:43.990Z,24.64
2023-05-02T10:54:47.066Z,24.39
2023-05-02T10:58:01.535Z,24.21
2023-05-02T11:01:32.497Z,24.02
2023-05-02T11:05:07.183Z,24.42
2023-05-02T11:08:16.883Z,24.58
2023-05-02T11:11:43.637Z,24.21
2023-05-02T11:14:48.735Z,24.58
2023-05-02T11:18:02.025Z,24.98
2023-05-02T11:21:32.248Z,24.59
2023-05-02T11:24:43.002Z,24.73
2023-05-02T11:27:49.432Z,24.27
2023-05-02T11:30:52.126Z,25.70
2023-05-02T11:33:59.831Z,26.10
2023-05-02T11:37:11.882Z,26.05
2023-05-02T11:40:15.442Z,26.52
2023-05-02T11:43:19.374Z,27.18
2023-05-02T11:46:23.190Z,26.86
2023-05-02T11:49:26.027Z,26.49
2023-05-02T11:52:30.866Z,26.13
2023-05-02T11:55:33.620Z,26.25
2023-05-02T11:58:36.721Z,26.27
2023-05-02T12:01:48.642Z,26.38
2023-05-02T12:04:51.738Z,25.85
2023-05-02T12:07:54.639Z,25.42
2023-05-02T12:10:57.794Z,25.25
2023-05-02T12:14:00.666Z,25.26
2023-05-02T12:17:04.403Z,25.31
2023-05-02T12:20:09.542Z,24.33
2023-05-02T12:23:13.411Z,24.14
2023-05-02T12:26:25.744Z,24.74
2023-05-02T12:29:42.027Z,24.97
2023-05-02T12:32:45.803Z,25.08
2023-05-02T12:35:49.148Z,25.01
2023-05-02T12:39:02.311Z,24.95
2023-05-02T12:42:12.515Z,25.42
2023-05-02T12:45:18.871Z,25.98
2023-05-02T12:48:27.304Z,25.64
2023-05-02T12:51:31.734Z,25.32
2023-05-02T12:54:34.871Z,25.70
2023-05-02T12:57:37.594Z,25.57
2023-05-02T13:00:45.560Z,24.86
2023-05-02T13:03:51.665Z,24.52
2023-05-02T13:06:54.987Z,24.04
2023-05-02T13:09:57.692Z,24.48
2023-05-02T13:13:01.186Z,24.58
2023-05-02T13:16:04.202Z,24.20
2023-05-02T13:19:07.511Z,23.90
2023-05-02T13:22:11.739Z,23.91
2023-05-02T13:25:14.978Z,23.78
2023-05-02T13:28:17.693Z,23.76
2023-05-02T13:31:20.924Z,23.86
2023-05-02T13:34:23.689Z,24.09
2023-05-02T13:37:26.983Z,23.90
2023-05-02T13:40:29.862Z,23.76
2023-05-02T13:43:33.446Z,23.63
2023-05-02T13:46:38.083Z,23.72
2023-05-02T13:49:41.375Z,23.79
2023-05-02T13:52:45.918Z,23.77
2023-05-02T13:55:51.304Z,23.60
2023-05-02T13:58:54.247Z,23.48
2023-05-02T14:01:57.217Z,23.40
2023-05-02T14:05:00.306Z,23.43
2023-05-02T14:08:03.225Z,23.47
2023-05-02T14:11:07.373Z,23.50
2023-05-02T14:14:12.680Z,23.39
2023-05-02T14:17:15.905Z,23.17
2023-05-02T14:20:19.062Z,23.23
2023-05-02T14:23:23.244Z,23.04
2023-05-02T14:26:26.624Z,22.91
2023-05-02T14:29:29.794Z,22.97
2023-05-02T14:32:34.451Z,22.68
2023-05-02T14:35:38.738Z,22.07
2023-05-02T14:38:41.646Z,22.26
2023-05-02T14:41:44.723Z,22.38
2023-05-02T14:44:47.512Z,22.39
2023-05-02T14:47:53.323Z,22.34
2023-05-02T14:50:57.518Z,22.31
2023-05-02T14:54:00.704Z,22.14
2023-05-02T14:57:04.035Z,22.18
2023-05-02T15:00:08.759Z,21.69
2023-05-02T15:03:12.424Z,20.69
2023-05-02T15:06:20.302Z,20.17
2023-05-02T15:09:26.677Z,19.83
2023-05-02T15:12:30.049Z,19.45
2023-05-02T15:15:32.831Z,19.18
2023-05-02T15:18:36.132Z,19.07
2023-05-02T15:21:38.788Z,18.89
2023-05-02T15:24:42.090Z,18.80
2023-05-02T15:27:44.794Z,18.91
2023-05-02T15:30:49.665Z,18.69
2023-05-02T15:33:52.584Z,18.39
2023-05-02T15:36:57.951Z,17.95
2023-05-02T15:40:01.695Z,17.96
2023-05-02T15:43:05.795Z,17.68
2023-05-02T15:46:08.920Z,17.29
2023-05-02T15:49:12.043Z,17.30
2023-05-02T15:52:14.664Z,17.20
2023-05-02T15:55:17.997Z,17.20
2023-05-02T15:58:21.245Z,17.16
2023-05-02T16:01:24.474Z,17.23
2023-05-02T16:04:29.331Z,17.27
2023-05-02T16:07:32.316Z,17.31
2023-05-02T16:10:36.756Z,17.16
2023-05-02T16:13:40.651Z,17.18
2023-05-02T16:16:44.723Z,17.10
2023-05-02T16:19:47.655Z,17.08
2023-05-02T16:22:51.606Z,17.01
2023-05-02T16:26:01.813Z,16.91
2023-05-02T16:29:04.800Z,16.71
2023-05-02T16:32:08.567Z,16.68
2023-05-02T16:35:13.284Z,16.78
2023-05-02T16:38:16.462Z,16.74
2023-05-02T16:41:19.667Z,16.71
2023-05-02T16:44:22.680Z,16.81
2023-05-02T16:47:25.869Z,16.78
2023-05-02T16:50:28.629Z,16.82
2023-05-02T16:53:31.998Z,16.78
2023-05-02T16:56:34.929Z,16.68
2023-05-02T16:59:38.210Z,16.58
2023-05-02T17:02:41.185Z,16.56
2023-05-02T17:05:44.318Z,16.52
2023-05-02T17:08:47.068Z,16.48
2023-05-02T17:11:50.465Z,16.44
2023-05-02T17:14:53.501Z,16.41
2023-05-02T17:17:56.721Z,16.32
2023-05-02T17:21:00.931Z,16.21
2023-05-02T17:24:05.493Z,16.10
2023-05-02T17:27:08.428Z,16.03
2023-05-02T17:30:13.737Z,15.98
2023-05-02T17:33:16.669Z,15.92
2023-05-02T17:36:19.855Z,15.85
2023-05-02T17:39:23.237Z,15.91
2023-05-02T17:42:26.507Z,15.93
2023-05-02T17:45:29.613Z,15.95
2023-05-02T17:48:32.821Z,15.87
2023-05-02T17:51:36.556Z,15.86
2023-05-02T17:54:39.815Z,15.85
2023-05-02T17:57:42.919Z,15.83
2023-05-02T18:00:46.490Z,15.69
2023-05-02T18:03:50.320Z,15.75
2023-05-02T18:06:53.839Z,15.79
2023-05-02T18:09:57.994Z,15.68
2023-05-02T18:13:00.788Z,15.44
2023-05-02T18:16:05.137Z,15.46
2023-05-02T18:19:08.451Z,15.48
2023-05-02T18:22:13.447Z,15.48
2023-05-02T18:25:17.380Z,15.42
2023-05-02T18:28:20.939Z,15.50
2023-05-02T18:31:24.114Z,15.60
2023-05-02T18:34:32.566Z,15.63
2023-05-02T18:37:35.763Z,15.60
2023-05-02T18:40:39.341Z,15.60
2023-05-02T18:43:42.860Z,15.61
2023-05-02T18:46:46.289Z,15.53
2023-05-02T18:49:50.617Z,15.57
2023-05-02T18:52:54.078Z,15.54
2023-05-02T18:55:58.168Z,15.42
2023-05-02T18:59:02.315Z,15.29
2023-05-02T19:02:05.735Z,15.32
2023-05-02T19:05:10.290Z,15.20
2023-05-02T19:08:13.514Z,14.90
2023-05-02T19:11:17.827Z,14.96
2023-05-02T19:14:21.302Z,14.93
2023-05-02T19:17:27.131Z,14.87
2023-05-02T19:20:30.712Z,14.95
2023-05-02T19:23:36.204Z,15.06
2023-05-02T19:26:39.780Z,15.06
2023-05-02T19:29:44.644Z,15.06
2023-05-02T19:32:48.358Z,15.21
2023-05-02T19:35:54.772Z,15.25
2023-05-02T19:39:01.429Z,15.13
2023-05-02T19:42:05.814Z,15.13
2023-05-02T19:45:10.612Z,15.19
2023-05-02T19:48:14.745Z,15.17
2023-05-02T19:51:25.462Z,15.08
2023-05-02T19:54:29.007Z,15.08
2023-05-02T19:57:32.435Z,15.04
2023-05-02T20:00:36.096Z,15.05
2023-05-02T20:03:47.299Z,14.85
2023-05-02T20:06:50.442Z,14.89
2023-05-02T20:09:53.890Z,15.07
2023-05-02T20:12:56.921Z,15.05
2023-05-02T20:16:00.372Z,15.11
2023-05-02T20:19:04.856Z,15.12
2023-05-02T20:22:08.365Z,15.19
2023-05-02T20:25:12.102Z,15.10
2023-05-02T20:28:15.696Z,15.19
2023-05-02T20:31:18.456Z,14.96
2023-05-02T20:34:22.166Z,14.99
2023-05-02T20:37:25.779Z,14.98
2023-05-02T20:40:30.902Z,15.04
2023-05-02T20:43:35.596Z,15.04
2023-05-02T20:46:38.675Z,15.00
2023-05-02T20:49:41.493Z,14.92
2023-05-02T20:52:45.216Z,14.94
2023-05-02T20:55:49.122Z,14.87
2023-05-02T20:58:53.196Z,14.81
2023-05-02T21:01:57.127Z,14.76
2023-05-02T21:05:00.510Z,14.86
2023-05-02T21:08:03.893Z,14.93
2023-05-02T21:11:17.241Z,14.86
2023-05-02T21:14:23.398Z,14.91
2023-05-02T21:17:26.689Z,14.79
2023-05-02T21:20:29.876Z,14.66
2023-05-02T21:23:33.402Z,14.76
2023-05-02T21:26:36.186Z,14.61
2023-05-02T21:29:39.161Z,14.63
2023-05-02T21:32:42.658Z,14.52
2023-05-02T21:35:46.572Z,14.47
2023-05-02T21:38:49.263Z,14.45
2023-05-02T21:41:52.308Z,14.37
2023-05-02T21:44:55.419Z,14.55
2023-05-02T21:47:58.504Z,14.54
2023-05-02T21:51:01.310Z,14.54
2023-05-02T21:54:04.700Z,14.46
2023-05-02T21:57:07.370Z,14.45
2023-05-02T22:00:13.327Z,14.45
2023-05-02T22:03:17.026Z,14.50
2023-05-02T22:06:20.871Z,14.48
2023-05-02T22:09:24.023Z,14.31
2023-05-02T22:12:27.005Z,14.40
2023-05-02T22:15:30.907Z,14.34
2023-05-02T22:18:33.515Z,14.45
2023-05-02T22:21:36.564Z,14.32
2023-05-02T22:24:39.287Z,14.00
2023-05-02T22:27:42.389Z,14.12
2023-05-02T22:30:45.308Z,14.04
2023-05-02T22:33:50.210Z,14.10
2023-05-02T22:36:53.047Z,14.20
2023-05-02T22:39:56.429Z,14.25
2023-05-02T22:42:59.418Z,14.24
2023-05-02T22:46:02.713Z,14.32
2023-05-02T22:49:07.941Z,14.30
2023-05-02T22:52:11.372Z,14.29
2023-05-02T22:55:14.243Z,14.37
2023-05-02T22:58:17.530Z,14.40
2023-05-02T23:01:20.276Z,14.46
2023-05-02T23:04:23.575Z,14.49
2023-05-02T23:07:26.633Z,14.49
2023-05-02T23:10:29.861Z,14.45
2023-05-02T23:13:32.683Z,14.41
2023-05-02T23:16:35.779Z,14.46
2023-05-02T23:19:38.501Z,14.55
2023-05-02T23:22:46.125Z,14.37
2023-05-02T23:25:49.082Z,14.22
2023-05-02T23:28:52.214Z,14.17
2023-05-02T23:31:55.656Z,14.07
2023-05-02T23:34:58.802Z,14.16
2023-05-02T23:38:07.881Z,14.28
2023-05-02T23:41:11.113Z,14.28
2023-05-02T23:44:13.871Z,14.27
2023-05-02T23:47:17.014Z,14.35
2023-05-02T23:50:19.986Z,14.44
2023-05-02T23:53:22.987Z,14.51
2023-05-02T23:56:26.287Z,14.49
2023-05-02T23:59:29.327Z,14.35
